sensor_id;sensor_type;location;lat;lon;timestamp;pressure;altitude;pressure_sealevel;temperature;humidity
80323;BME280;69636;52.372;13.610;2023-05-07T08:13:24;102056.72;;;16.55;48.77
80323;BME280;69636;52.372;13.610;2023-05-07T08:15:50;102061.25;;;15.77;50.83
80323;BME280;69636;52.372;13.610;2023-05-07T08:22:06;102056.47;;;13.79;57.45
80323;BME280;69636;52.372;13.610;2023-05-07T08:24:32;102058.44;;;14.43;57.46
80323;BME280;69636;52.372;13.610;2023-05-07T08:26:59;102060.81;;;13.89;56.97
80323;BME280;69636;52.372;13.610;2023-05-07T08:29:25;102060.78;;;15.46;53.35
80323;BME280;69636;52.372;13.610;2023-05-07T08:31:52;102067.97;;;15.45;52.24
80323;BME280;69636;52.372;13.610;2023-05-07T08:34:18;102062.38;;;16.18;50.53
80323;BME280;69636;52.372;13.610;2023-05-07T08:41:55;102076.72;;;16.09;49.70
80323;BME280;69636;52.372;13.610;2023-05-07T08:44:22;102070.09;;;15.95;50.47
80323;BME280;69636;52.372;13.610;2023-05-07T08:46:50;102075.03;;;16.08;50.05
80323;BME280;69636;52.372;13.610;2023-05-07T08:52:16;102067.81;;;16.60;49.52
80323;BME280;69636;52.372;13.610;2023-05-07T08:54:42;102069.63;;;16.25;49.27
80323;BME280;69636;52.372;13.610;2023-05-07T08:57:08;102070.81;;;16.57;49.16
80323;BME280;69636;52.372;13.610;2023-05-07T08:59:35;102067.72;;;16.44;48.66
80323;BME280;69636;52.372;13.610;2023-05-07T09:02:01;102070.69;;;16.67;47.39
80323;BME280;69636;52.372;13.610;2023-05-07T09:04:27;102072.50;;;16.58;47.95
80323;BME280;69636;52.372;13.610;2023-05-07T09:06:53;102077.44;;;16.45;47.82
80323;BME280;69636;52.372;13.610;2023-05-07T09:09:21;102081.66;;;16.21;49.14
80323;BME280;69636;52.372;13.610;2023-05-07T09:11:48;102082.59;;;16.12;47.90
80323;BME280;69636;52.372;13.610;2023-05-07T09:14:14;102077.56;;;16.09;49.80
80323;BME280;69636;52.372;13.610;2023-05-07T09:16:40;102072.06;;;16.45;49.04
80323;BME280;69636;52.372;13.610;2023-05-07T09:19:06;102072.22;;;16.09;49.89
80323;BME280;69636;52.372;13.610;2023-05-07T09:21:32;102079.59;;;15.54;51.01
80323;BME280;69636;52.372;13.610;2023-05-07T09:23:59;102096.94;;;14.87;52.38
80323;BME280;69636;52.372;13.610;2023-05-07T09:26:26;102083.72;;;15.48;52.02
80323;BME280;69636;52.372;13.610;2023-05-07T09:28:52;102091.53;;;15.59;50.88
80323;BME280;69636;52.372;13.610;2023-05-07T09:31:20;102089.78;;;15.68;51.48
80323;BME280;69636;52.372;13.610;2023-05-07T09:33:48;102084.13;;;15.08;52.39
80323;BME280;69636;52.372;13.610;2023-05-07T09:36:14;102089.88;;;15.13;53.04
80323;BME280;69636;52.372;13.610;2023-05-07T09:38:41;102088.63;;;15.08;52.11
80323;BME280;69636;52.372;13.610;2023-05-07T09:41:09;102090.03;;;14.84;53.07
80323;BME280;69636;52.372;13.610;2023-05-07T09:43:37;102096.88;;;14.69;53.96
80323;BME280;69636;52.372;13.610;2023-05-07T09:46:06;102103.53;;;15.55;50.21
80323;BME280;69636;52.372;13.610;2023-05-07T09:48:36;102092.75;;;15.30;50.44
80323;BME280;69636;52.372;13.610;2023-05-07T09:51:08;102094.88;;;15.44;50.12
80323;BME280;69636;52.372;13.610;2023-05-07T09:53:37;102101.31;;;16.04;49.75
80323;BME280;69636;52.372;13.610;2023-05-07T09:56:05;102095.44;;;16.86;47.41
80323;BME280;69636;52.372;13.610;2023-05-07T09:58:33;102097.72;;;16.21;47.72
80323;BME280;69636;52.372;13.610;2023-05-07T10:01:04;102096.44;;;15.64;50.10
80323;BME280;69636;52.372;13.610;2023-05-07T10:03:32;102098.78;;;15.32;50.72
80323;BME280;69636;52.372;13.610;2023-05-07T10:05:59;102097.81;;;15.33;50.99
80323;BME280;69636;52.372;13.610;2023-05-07T10:08:26;102100.34;;;15.07;51.15
80323;BME280;69636;52.372;13.610;2023-05-07T10:10:52;102106.69;;;14.78;52.17
80323;BME280;69636;52.372;13.610;2023-05-07T10:13:20;102111.22;;;14.68;53.69
80323;BME280;69636;52.372;13.610;2023-05-07T10:15:47;102098.88;;;14.57;52.83
80323;BME280;69636;52.372;13.610;2023-05-07T10:18:15;102100.41;;;14.13;54.03
80323;BME280;69636;52.372;13.610;2023-05-07T10:20:42;102096.31;;;14.29;53.61
80323;BME280;69636;52.372;13.610;2023-05-07T10:23:15;102098.41;;;14.25;53.56
80323;BME280;69636;52.372;13.610;2023-05-07T10:25:43;102105.00;;;14.77;52.65
80323;BME280;69636;52.372;13.610;2023-05-07T10:28:10;102099.53;;;15.06;51.77
80323;BME280;69636;52.372;13.610;2023-05-07T10:30:48;102104.75;;;15.97;50.16
80323;BME280;69636;52.372;13.610;2023-05-07T10:33:23;102102.00;;;16.06;49.71
80323;BME280;69636;52.372;13.610;2023-05-07T10:35:55;102093.00;;;16.67;48.81
80323;BME280;69636;52.372;13.610;2023-05-07T10:38:23;102101.97;;;16.58;49.06
80323;BME280;69636;52.372;13.610;2023-05-07T10:40:51;102096.72;;;16.22;48.37
80323;BME280;69636;52.372;13.610;2023-05-07T10:43:17;102094.69;;;15.73;50.24
80323;BME280;69636;52.372;13.610;2023-05-07T10:45:43;102094.81;;;15.53;50.06
80323;BME280;69636;52.372;13.610;2023-05-07T10:48:11;102092.16;;;15.53;49.92
80323;BME280;69636;52.372;13.610;2023-05-07T10:50:43;102088.97;;;15.05;50.89
80323;BME280;69636;52.372;13.610;2023-05-07T10:53:23;102088.63;;;14.90;51.33
80323;BME280;69636;52.372;13.610;2023-05-07T10:55:50;102094.28;;;15.50;49.68
80323;BME280;69636;52.372;13.610;2023-05-07T10:58:23;102092.34;;;15.07;51.29
80323;BME280;69636;52.372;13.610;2023-05-07T11:00:50;102099.44;;;15.16;51.42
80323;BME280;69636;52.372;13.610;2023-05-07T11:03:16;102100.03;;;15.73;50.21
80323;BME280;69636;52.372;13.610;2023-05-07T11:05:43;102100.19;;;15.53;49.77
80323;BME280;69636;52.372;13.610;2023-05-07T11:08:11;102092.25;;;15.34;50.40
80323;BME280;69636;52.372;13.610;2023-05-07T11:10:51;102094.94;;;15.16;50.41
80323;BME280;69636;52.372;13.610;2023-05-07T11:13:18;102102.22;;;15.24;51.24
80323;BME280;69636;52.372;13.610;2023-05-07T11:15:46;102094.53;;;15.11;51.32
80323;BME280;69636;52.372;13.610;2023-05-07T11:18:14;102083.09;;;15.19;52.72
80323;BME280;69636;52.372;13.610;2023-05-07T11:21:02;102085.91;;;15.17;51.68
80323;BME280;69636;52.372;13.610;2023-05-07T11:23:58;102084.94;;;15.18;50.68
80323;BME280;69636;52.372;13.610;2023-05-07T11:26:28;102083.03;;;15.46;51.63
80323;BME280;69636;52.372;13.610;2023-05-07T11:28:55;102084.97;;;15.72;49.72
80323;BME280;69636;52.372;13.610;2023-05-07T11:31:23;102083.13;;;15.54;50.16
80323;BME280;69636;52.372;13.610;2023-05-07T11:33:51;102081.56;;;15.87;49.48
80323;BME280;69636;52.372;13.610;2023-05-07T11:36:20;102082.13;;;17.27;46.46
80323;BME280;69636;52.372;13.610;2023-05-07T11:38:49;102071.94;;;17.39;45.51
80323;BME280;69636;52.372;13.610;2023-05-07T11:41:16;102073.41;;;17.25;44.15
80323;BME280;69636;52.372;13.610;2023-05-07T11:43:59;102068.13;;;17.66;44.09
80323;BME280;69636;52.372;13.610;2023-05-07T11:46:27;102069.53;;;18.41;42.52
80323;BME280;69636;52.372;13.610;2023-05-07T11:48:53;102078.69;;;19.33;41.40
80323;BME280;69636;52.372;13.610;2023-05-07T11:51:24;102068.66;;;19.73;40.46
80323;BME280;69636;52.372;13.610;2023-05-07T11:53:50;102068.84;;;19.71;39.76
80323;BME280;69636;52.372;13.610;2023-05-07T11:56:17;102078.13;;;18.20;41.99
80323;BME280;69636;52.372;13.610;2023-05-07T11:58:45;102083.56;;;17.80;43.56
80323;BME280;69636;52.372;13.610;2023-05-07T12:01:12;102089.66;;;17.23;44.71
80323;BME280;69636;52.372;13.610;2023-05-07T12:03:40;102077.13;;;16.48;46.02
80323;BME280;69636;52.372;13.610;2023-05-07T12:06:10;102075.75;;;16.70;44.97
80323;BME280;69636;52.372;13.610;2023-05-07T12:08:39;102082.25;;;16.33;46.21
80323;BME280;69636;52.372;13.610;2023-05-07T12:11:07;102079.28;;;16.18;47.93
80323;BME280;69636;52.372;13.610;2023-05-07T12:13:33;102073.00;;;16.27;47.24
80323;BME280;69636;52.372;13.610;2023-05-07T12:15:59;102071.03;;;17.22;44.77
80323;BME280;69636;52.372;13.610;2023-05-07T12:18:26;102071.63;;;17.74;44.20
80323;BME280;69636;52.372;13.610;2023-05-07T12:20:55;102074.09;;;17.51;44.62
80323;BME280;69636;52.372;13.610;2023-05-07T12:23:22;102087.50;;;18.33;42.15
80323;BME280;69636;52.372;13.610;2023-05-07T12:25:50;102081.63;;;18.29;41.27
80323;BME280;69636;52.372;13.610;2023-05-07T12:28:16;102090.19;;;18.41;40.35
80323;BME280;69636;52.372;13.610;2023-05-07T12:30:44;102078.38;;;18.66;39.74
80323;BME280;69636;52.372;13.610;2023-05-07T12:33:12;102079.72;;;18.62;39.57
80323;BME280;69636;52.372;13.610;2023-05-07T12:35:40;102088.28;;;18.49;40.32
80323;BME280;69636;52.372;13.610;2023-05-07T12:38:08;102085.94;;;18.54;39.22
80323;BME280;69636;52.372;13.610;2023-05-07T12:40:35;102079.88;;;18.52;40.19
80323;BME280;69636;52.372;13.610;2023-05-07T12:43:03;102084.78;;;19.27;38.16
80323;BME280;69636;52.372;13.610;2023-05-07T12:45:29;102084.69;;;19.12;40.28
80323;BME280;69636;52.372;13.610;2023-05-07T12:47:56;102078.41;;;20.11;37.40
80323;BME280;69636;52.372;13.610;2023-05-07T12:50:22;102080.34;;;20.17;37.32
80323;BME280;69636;52.372;13.610;2023-05-07T12:52:49;102086.13;;;20.14;35.80
80323;BME280;69636;52.372;13.610;2023-05-07T12:55:16;102076.56;;;20.26;35.36
80323;BME280;69636;52.372;13.610;2023-05-07T12:57:43;102080.63;;;20.08;36.29
80323;BME280;69636;52.372;13.610;2023-05-07T13:00:13;102080.00;;;20.79;35.70
80323;BME280;69636;52.372;13.610;2023-05-07T13:02:41;102079.94;;;20.43;36.46
80323;BME280;69636;52.372;13.610;2023-05-07T13:05:08;102078.47;;;20.03;35.74
80323;BME280;69636;52.372;13.610;2023-05-07T13:07:34;102082.59;;;20.28;35.50
80323;BME280;69636;52.372;13.610;2023-05-07T13:10:00;102077.78;;;20.68;35.72
80323;BME280;69636;52.372;13.610;2023-05-07T13:12:26;102088.59;;;20.01;36.87
80323;BME280;69636;52.372;13.610;2023-05-07T13:14:52;102080.41;;;19.26;38.42
80323;BME280;69636;52.372;13.610;2023-05-07T13:17:20;102092.72;;;19.51;38.08
80323;BME280;69636;52.372;13.610;2023-05-07T13:19:46;102078.94;;;19.92;36.67
80323;BME280;69636;52.372;13.610;2023-05-07T13:22:12;102078.88;;;20.15;35.88
80323;BME280;69636;52.372;13.610;2023-05-07T13:24:38;102085.03;;;20.53;36.76
80323;BME280;69636;52.372;13.610;2023-05-07T13:27:05;102073.88;;;20.56;34.98
80323;BME280;69636;52.372;13.610;2023-05-07T13:29:31;102083.66;;;20.57;35.44
80323;BME280;69636;52.372;13.610;2023-05-07T13:31:57;102077.63;;;19.42;37.59
80323;BME280;69636;52.372;13.610;2023-05-07T13:34:24;102077.44;;;19.21;38.13
80323;BME280;69636;52.372;13.610;2023-05-07T13:36:50;102086.13;;;19.23;37.42
80323;BME280;69636;52.372;13.610;2023-05-07T13:39:16;102077.09;;;20.07;36.26
80323;BME280;69636;52.372;13.610;2023-05-07T13:41:42;102087.47;;;20.77;34.57
80323;BME280;69636;52.372;13.610;2023-05-07T13:44:08;102085.03;;;20.82;35.75
80323;BME280;69636;52.372;13.610;2023-05-07T13:46:34;102078.13;;;20.36;35.77
80323;BME280;69636;52.372;13.610;2023-05-07T13:49:01;102078.50;;;20.91;35.10
80323;BME280;69636;52.372;13.610;2023-05-07T13:51:28;102077.72;;;21.27;34.71
80323;BME280;69636;52.372;13.610;2023-05-07T13:53:54;102068.84;;;20.53;35.55
80323;BME280;69636;52.372;13.610;2023-05-07T13:56:20;102081.03;;;19.36;39.14
80323;BME280;69636;52.372;13.610;2023-05-07T13:58:46;102084.84;;;19.19;38.20
80323;BME280;69636;52.372;13.610;2023-05-07T14:01:16;102072.41;;;18.87;38.73
80323;BME280;69636;52.372;13.610;2023-05-07T14:03:42;102077.88;;;18.62;39.08
80323;BME280;69636;52.372;13.610;2023-05-07T14:06:08;102083.19;;;18.15;41.31
80323;BME280;69636;52.372;13.610;2023-05-07T14:08:36;102078.81;;;18.14;40.53
80323;BME280;69636;52.372;13.610;2023-05-07T14:11:02;102070.13;;;17.88;44.51
80323;BME280;69636;52.372;13.610;2023-05-07T14:13:28;102067.75;;;17.77;43.82
80323;BME280;69636;52.372;13.610;2023-05-07T14:15:54;102073.28;;;17.59;44.31
80323;BME280;69636;52.372;13.610;2023-05-07T14:18:21;102067.75;;;17.60;44.22
80323;BME280;69636;52.372;13.610;2023-05-07T14:20:48;102074.97;;;17.76;43.82
80323;BME280;69636;52.372;13.610;2023-05-07T14:23:14;102075.31;;;17.81;44.97
80323;BME280;69636;52.372;13.610;2023-05-07T14:25:42;102068.78;;;17.92;42.50
80323;BME280;69636;52.372;13.610;2023-05-07T14:28:08;102072.44;;;17.99;42.16
80323;BME280;69636;52.372;13.610;2023-05-07T14:30:34;102079.50;;;17.68;42.69
80323;BME280;69636;52.372;13.610;2023-05-07T14:33:00;102073.72;;;17.14;44.38
80323;BME280;69636;52.372;13.610;2023-05-07T14:35:26;102070.38;;;17.28;44.47
80323;BME280;69636;52.372;13.610;2023-05-07T14:37:54;102076.94;;;17.42;45.37
80323;BME280;69636;52.372;13.610;2023-05-07T14:40:20;102070.25;;;17.38;44.80
80323;BME280;69636;52.372;13.610;2023-05-07T14:42:47;102076.47;;;17.38;44.48
80323;BME280;69636;52.372;13.610;2023-05-07T14:45:13;102070.97;;;16.98;45.53
80323;BME280;69636;52.372;13.610;2023-05-07T14:47:40;102070.84;;;16.65;46.04
80323;BME280;69636;52.372;13.610;2023-05-07T14:50:06;102069.16;;;16.64;47.10
80323;BME280;69636;52.372;13.610;2023-05-07T14:52:32;102062.41;;;16.52;46.63
80323;BME280;69636;52.372;13.610;2023-05-07T14:54:58;102078.16;;;16.55;46.40
80323;BME280;69636;52.372;13.610;2023-05-07T14:57:25;102087.09;;;16.38;46.43
80323;BME280;69636;52.372;13.610;2023-05-07T14:59:52;102083.03;;;16.25;47.33
80323;BME280;69636;52.372;13.610;2023-05-07T15:02:19;102083.88;;;16.26;48.58
80323;BME280;69636;52.372;13.610;2023-05-07T15:04:45;102082.25;;;16.07;48.00
80323;BME280;69636;52.372;13.610;2023-05-07T15:07:11;102093.19;;;15.96;48.14
80323;BME280;69636;52.372;13.610;2023-05-07T15:09:38;102089.59;;;16.05;47.55
80323;BME280;69636;52.372;13.610;2023-05-07T15:12:06;102089.31;;;16.16;46.75
80323;BME280;69636;52.372;13.610;2023-05-07T15:14:32;102087.78;;;16.14;47.54
80323;BME280;69636;52.372;13.610;2023-05-07T15:17:03;102100.78;;;16.26;46.68
80323;BME280;69636;52.372;13.610;2023-05-07T15:19:30;102089.53;;;16.23;47.12
80323;BME280;69636;52.372;13.610;2023-05-07T15:21:57;102084.78;;;15.91;47.62
80323;BME280;69636;52.372;13.610;2023-05-07T15:24:24;102094.66;;;15.90;48.37
80323;BME280;69636;52.372;13.610;2023-05-07T15:26:51;102093.91;;;15.80;48.68
80323;BME280;69636;52.372;13.610;2023-05-07T15:29:21;102087.84;;;15.96;47.63
80323;BME280;69636;52.372;13.610;2023-05-07T15:31:47;102094.63;;;16.08;47.29
80323;BME280;69636;52.372;13.610;2023-05-07T15:34:14;102092.00;;;16.16;47.02
80323;BME280;69636;52.372;13.610;2023-05-07T15:36:40;102086.00;;;16.22;47.37
80323;BME280;69636;52.372;13.610;2023-05-07T15:39:06;102097.66;;;16.13;46.93
80323;BME280;69636;52.372;13.610;2023-05-07T15:41:32;102098.13;;;15.83;47.66
80323;BME280;69636;52.372;13.610;2023-05-07T15:43:59;102109.28;;;15.60;48.09
80323;BME280;69636;52.372;13.610;2023-05-07T15:46:25;102109.94;;;15.45;49.28
80323;BME280;69636;52.372;13.610;2023-05-07T15:48:52;102110.69;;;15.37;49.99
80323;BME280;69636;52.372;13.610;2023-05-07T15:51:20;102115.06;;;15.38;48.90
80323;BME280;69636;52.372;13.610;2023-05-07T15:53:47;102116.53;;;15.33;49.18
80323;BME280;69636;52.372;13.610;2023-05-07T15:56:13;102110.41;;;15.40;49.10
80323;BME280;69636;52.372;13.610;2023-05-07T15:58:42;102105.44;;;15.45;48.56
80323;BME280;69636;52.372;13.610;2023-05-07T16:03:42;102110.78;;;15.45;48.82
80323;BME280;69636;52.372;13.610;2023-05-07T16:06:09;102111.78;;;15.26;48.84
80323;BME280;69636;52.372;13.610;2023-05-07T16:08:35;102109.16;;;15.17;49.18
80323;BME280;69636;52.372;13.610;2023-05-07T16:11:01;102109.66;;;15.03;48.14
80323;BME280;69636;52.372;13.610;2023-05-07T16:13:27;102115.59;;;14.97;48.27
80323;BME280;69636;52.372;13.610;2023-05-07T16:15:55;102114.31;;;15.28;47.50
80323;BME280;69636;52.372;13.610;2023-05-07T16:22:17;102118.25;;;15.69;47.82
80323;BME280;69636;52.372;13.610;2023-05-07T16:24:44;102114.34;;;15.64;47.94
80323;BME280;69636;52.372;13.610;2023-05-07T16:27:11;102112.53;;;15.37;48.26
80323;BME280;69636;52.372;13.610;2023-05-07T16:29:39;102115.19;;;15.19;47.01
80323;BME280;69636;52.372;13.610;2023-05-07T16:32:06;102127.94;;;14.80;47.62
80323;BME280;69636;52.372;13.610;2023-05-07T16:34:34;102125.03;;;14.64;47.92
80323;BME280;69636;52.372;13.610;2023-05-07T16:37:02;102118.56;;;14.56;48.80
80323;BME280;69636;52.372;13.610;2023-05-07T16:39:33;102121.44;;;14.36;49.69
80323;BME280;69636;52.372;13.610;2023-05-07T16:42:00;102126.94;;;14.44;48.50
80323;BME280;69636;52.372;13.610;2023-05-07T16:44:27;102124.47;;;14.60;47.85
80323;BME280;69636;52.372;13.610;2023-05-07T16:46:55;102124.47;;;14.60;48.07
80323;BME280;69636;52.372;13.610;2023-05-07T16:49:22;102116.94;;;14.46;48.82
80323;BME280;69636;52.372;13.610;2023-05-07T16:51:49;102132.13;;;14.45;49.42
80323;BME280;69636;52.372;13.610;2023-05-07T16:54:16;102127.34;;;14.30;50.41
80323;BME280;69636;52.372;13.610;2023-05-07T16:56:45;102132.84;;;14.28;50.10
80323;BME280;69636;52.372;13.610;2023-05-07T16:59:12;102118.94;;;14.15;51.04
80323;BME280;69636;52.372;13.610;2023-05-07T17:01:40;102127.94;;;14.23;51.78
80323;BME280;69636;52.372;13.610;2023-05-07T17:04:07;102126.81;;;14.16;52.12
80323;BME280;69636;52.372;13.610;2023-05-07T17:06:35;102125.94;;;14.35;52.08
80323;BME280;69636;52.372;13.610;2023-05-07T17:09:03;102134.25;;;14.42;51.60
80323;BME280;69636;52.372;13.610;2023-05-07T17:11:30;102127.91;;;14.33;52.51
80323;BME280;69636;52.372;13.610;2023-05-07T17:13:59;102130.47;;;14.25;51.69
80323;BME280;69636;52.372;13.610;2023-05-07T17:16:26;102135.69;;;14.07;53.37
80323;BME280;69636;52.372;13.610;2023-05-07T17:18:53;102138.06;;;14.10;52.27
80323;BME280;69636;52.372;13.610;2023-05-07T17:21:20;102135.97;;;14.04;52.18
80323;BME280;69636;52.372;13.610;2023-05-07T17:23:48;102140.19;;;13.97;51.61
80323;BME280;69636;52.372;13.610;2023-05-07T17:26:15;102136.13;;;13.93;52.59
80323;BME280;69636;52.372;13.610;2023-05-07T17:28:44;102150.47;;;13.92;51.92
80323;BME280;69636;52.372;13.610;2023-05-07T17:31:12;102146.53;;;13.77;51.56
80323;BME280;69636;52.372;13.610;2023-05-07T17:33:42;102153.25;;;13.81;51.36
80323;BME280;69636;52.372;13.610;2023-05-07T17:36:09;102158.19;;;13.76;51.62
80323;BME280;69636;52.372;13.610;2023-05-07T17:38:37;102160.72;;;13.68;52.08
80323;BME280;69636;52.372;13.610;2023-05-07T17:41:04;102160.56;;;13.50;53.26
80323;BME280;69636;52.372;13.610;2023-05-07T17:43:31;102161.66;;;13.57;52.16
80323;BME280;69636;52.372;13.610;2023-05-07T17:45:59;102164.63;;;13.64;52.00
80323;BME280;69636;52.372;13.610;2023-05-07T17:48:28;102163.34;;;13.48;52.49
80323;BME280;69636;52.372;13.610;2023-05-07T17:50:59;102167.84;;;13.48;52.10
80323;BME280;69636;52.372;13.610;2023-05-07T17:53:27;102172.06;;;13.50;52.44
80323;BME280;69636;52.372;13.610;2023-05-07T17:55:54;102174.41;;;13.34;52.56
80323;BME280;69636;52.372;13.610;2023-05-07T17:58:23;102174.94;;;13.28;52.40
80323;BME280;69636;52.372;13.610;2023-05-07T18:00:51;102178.50;;;13.38;53.68
80323;BME280;69636;52.372;13.610;2023-05-07T18:03:19;102178.19;;;13.32;53.31
80323;BME280;69636;52.372;13.610;2023-05-07T18:05:49;102180.13;;;13.20;53.75
80323;BME280;69636;52.372;13.610;2023-05-07T18:08:16;102178.44;;;13.29;53.86
80323;BME280;69636;52.372;13.610;2023-05-07T18:10:44;102179.75;;;13.34;54.42
80323;BME280;69636;52.372;13.610;2023-05-07T18:13:11;102180.53;;;13.15;55.14
80323;BME280;69636;52.372;13.610;2023-05-07T18:15:38;102182.31;;;13.15;54.25
80323;BME280;69636;52.372;13.610;2023-05-07T18:18:06;102180.06;;;13.10;54.67
80323;BME280;69636;52.372;13.610;2023-05-07T18:20:33;102188.53;;;13.15;55.20
80323;BME280;69636;52.372;13.610;2023-05-07T18:23:02;102191.38;;;13.03;56.13
80323;BME280;69636;52.372;13.610;2023-05-07T18:25:31;102185.78;;;13.06;55.67
80323;BME280;69636;52.372;13.610;2023-05-07T18:27:59;102186.56;;;13.17;54.69
80323;BME280;69636;52.372;13.610;2023-05-07T18:30:26;102183.78;;;13.19;55.75
80323;BME280;69636;52.372;13.610;2023-05-07T18:32:54;102192.94;;;13.05;56.98
80323;BME280;69636;52.372;13.610;2023-05-07T18:35:22;102198.00;;;12.99;55.52
80323;BME280;69636;52.372;13.610;2023-05-07T18:37:49;102203.31;;;12.99;55.24
80323;BME280;69636;52.372;13.610;2023-05-07T18:40:19;102206.97;;;12.98;55.90
80323;BME280;69636;52.372;13.610;2023-05-07T18:42:46;102205.88;;;13.10;55.22
80323;BME280;69636;52.372;13.610;2023-05-07T18:45:13;102210.75;;;13.05;55.76
80323;BME280;69636;52.372;13.610;2023-05-07T18:47:42;102211.53;;;12.86;56.52
80323;BME280;69636;52.372;13.610;2023-05-07T18:50:10;102224.47;;;13.00;55.75
80323;BME280;69636;52.372;13.610;2023-05-07T18:52:38;102222.41;;;13.04;56.44
80323;BME280;69636;52.372;13.610;2023-05-07T18:55:06;102219.84;;;12.93;56.29
80323;BME280;69636;52.372;13.610;2023-05-07T18:57:36;102230.38;;;12.73;57.84
80323;BME280;69636;52.372;13.610;2023-05-07T19:00:04;102229.56;;;12.73;56.84
80323;BME280;69636;52.372;13.610;2023-05-07T19:02:31;102229.84;;;12.79;57.09
80323;BME280;69636;52.372;13.610;2023-05-07T19:04:59;102230.09;;;12.76;56.69
80323;BME280;69636;52.372;13.610;2023-05-07T19:07:26;102232.06;;;12.74;56.11
80323;BME280;69636;52.372;13.610;2023-05-07T19:09:53;102245.53;;;12.94;55.73
80323;BME280;69636;52.372;13.610;2023-05-07T19:12:32;102242.47;;;12.77;56.19
80323;BME280;69636;52.372;13.610;2023-05-07T19:15:01;102242.16;;;12.71;57.32
80323;BME280;69636;52.372;13.610;2023-05-07T19:17:28;102248.06;;;12.53;57.27
80323;BME280;69636;52.372;13.610;2023-05-07T19:19:55;102258.00;;;12.51;58.00
80323;BME280;69636;52.372;13.610;2023-05-07T19:22:23;102253.75;;;12.49;57.67
80323;BME280;69636;52.372;13.610;2023-05-07T19:24:50;102256.25;;;12.41;58.71
80323;BME280;69636;52.372;13.610;2023-05-07T19:27:17;102264.41;;;12.49;58.28
80323;BME280;69636;52.372;13.610;2023-05-07T19:29:44;102264.72;;;12.46;58.64
80323;BME280;69636;52.372;13.610;2023-05-07T19:32:13;102269.38;;;12.21;58.88
80323;BME280;69636;52.372;13.610;2023-05-07T19:34:42;102274.53;;;12.13;58.92
80323;BME280;69636;52.372;13.610;2023-05-07T19:37:09;102275.50;;;12.12;59.25
80323;BME280;69636;52.372;13.610;2023-05-07T19:39:44;102281.78;;;12.11;58.76
80323;BME280;69636;52.372;13.610;2023-05-07T19:42:12;102280.16;;;11.88;59.86
80323;BME280;69636;52.372;13.610;2023-05-07T19:44:40;102272.41;;;11.74;59.60
80323;BME280;69636;52.372;13.610;2023-05-07T19:47:07;102273.16;;;11.65;60.41
80323;BME280;69636;52.372;13.610;2023-05-07T19:49:43;102283.03;;;11.74;59.46
80323;BME280;69636;52.372;13.610;2023-05-07T19:52:11;102284.16;;;11.60;59.94
80323;BME280;69636;52.372;13.610;2023-05-07T19:54:38;102285.00;;;11.61;59.50
80323;BME280;69636;52.372;13.610;2023-05-07T19:57:06;102292.88;;;11.40;60.50
80323;BME280;69636;52.372;13.610;2023-05-07T19:59:36;102295.53;;;11.29;61.21
80323;BME280;69636;52.372;13.610;2023-05-07T20:02:04;102289.47;;;11.27;61.49
80323;BME280;69636;52.372;13.610;2023-05-07T20:04:32;102290.94;;;11.42;60.99
80323;BME280;69636;52.372;13.610;2023-05-07T20:07:00;102301.47;;;11.32;61.02
80323;BME280;69636;52.372;13.610;2023-05-07T20:09:28;102301.44;;;11.21;61.93
80323;BME280;69636;52.372;13.610;2023-05-07T20:11:55;102302.91;;;11.14;62.07
80323;BME280;69636;52.372;13.610;2023-05-07T20:14:22;102303.63;;;11.16;61.68
80323;BME280;69636;52.372;13.610;2023-05-07T20:16:50;102308.91;;;11.05;62.12
80323;BME280;69636;52.372;13.610;2023-05-07T20:19:20;102308.41;;;11.00;61.48
80323;BME280;69636;52.372;13.610;2023-05-07T20:21:47;102307.91;;;10.83;63.42
80323;BME280;69636;52.372;13.610;2023-05-07T20:24:16;102314.69;;;10.87;62.80
80323;BME280;69636;52.372;13.610;2023-05-07T20:26:44;102317.66;;;10.72;63.52
80323;BME280;69636;52.372;13.610;2023-05-07T20:29:11;102321.66;;;10.77;62.61
80323;BME280;69636;52.372;13.610;2023-05-07T20:31:41;102326.47;;;10.72;63.11
80323;BME280;69636;52.372;13.610;2023-05-07T20:34:10;102325.13;;;10.67;62.64
80323;BME280;69636;52.372;13.610;2023-05-07T20:36:38;102328.59;;;10.56;63.61
80323;BME280;69636;52.372;13.610;2023-05-07T20:39:05;102327.06;;;10.41;64.54
80323;BME280;69636;52.372;13.610;2023-05-07T20:41:34;102333.16;;;10.54;63.23
80323;BME280;69636;52.372;13.610;2023-05-07T20:44:04;102328.09;;;10.51;63.69
80323;BME280;69636;52.372;13.610;2023-05-07T20:46:31;102330.13;;;10.47;63.53
80323;BME280;69636;52.372;13.610;2023-05-07T20:49:03;102332.84;;;10.35;64.22
80323;BME280;69636;52.372;13.610;2023-05-07T20:51:30;102336.63;;;10.07;65.40
80323;BME280;69636;52.372;13.610;2023-05-07T20:53:58;102327.41;;;10.12;65.25
80323;BME280;69636;52.372;13.610;2023-05-07T20:56:25;102332.44;;;10.15;64.86
80323;BME280;69636;52.372;13.610;2023-05-07T20:58:54;102332.53;;;9.90;65.95
80323;BME280;69636;52.372;13.610;2023-05-07T21:01:21;102332.09;;;9.96;65.64
80323;BME280;69636;52.372;13.610;2023-05-07T21:03:48;102334.00;;;10.07;64.66
80323;BME280;69636;52.372;13.610;2023-05-07T21:06:15;102336.63;;;10.07;64.31
80323;BME280;69636;52.372;13.610;2023-05-07T21:08:43;102331.88;;;9.99;64.84
80323;BME280;69636;52.372;13.610;2023-05-07T21:11:10;102339.63;;;10.02;65.14
80323;BME280;69636;52.372;13.610;2023-05-07T21:13:37;102343.16;;;9.90;65.12